sensor_id;sensor_type;location;lat;lon;timestamp;P1;durP1;ratioP1;P2;durP2;ratioP2
14603;SDS011;7388;51.078;13.740;2022-12-31T00:01:34;6.07;;;4.97;;
14603;SDS011;7388;51.078;13.740;2022-12-31T00:04:00;4.80;;;4.33;;
14603;SDS011;7388;51.078;13.740;2022-12-31T00:09:00;3.50;;;2.33;;
14603;SDS011;7388;51.078;13.740;2022-12-31T00:11:28;2.83;;;1.55;;
14603;SDS011;7388;51.078;13.740;2022-12-31T00:13:55;1.50;;;1.20;;
14603;SDS011;7388;51.078;13.740;2022-12-31T00:16:23;2.80;;;1.48;;
14603;SDS011;7388;51.078;13.740;2022-12-31T00:18:51;2.03;;;1.40;;
14603;SDS011;7388;51.078;13.740;2022-12-31T00:21:19;3.72;;;1.65;;
14603;SDS011;7388;51.078;13.740;2022-12-31T00:23:44;2.50;;;1.63;;
14603;SDS011;7388;51.078;13.740;2022-12-31T00:26:12;2.10;;;1.50;;
14603;SDS011;7388;51.078;13.740;2022-12-31T00:28:40;1.52;;;1.20;;
14603;SDS011;7388;51.078;13.740;2022-12-31T00:31:13;2.95;;;1.50;;
14603;SDS011;7388;51.078;13.740;2022-12-31T00:33:50;2.65;;;2.08;;
14603;SDS011;7388;51.078;13.740;2022-12-31T00:36:17;4.18;;;2.95;;
14603;SDS011;7388;51.078;13.740;2022-12-31T00:38:49;2.40;;;1.42;;
14603;SDS011;7388;51.078;13.740;2022-12-31T00:41:17;2.63;;;1.77;;
14603;SDS011;7388;51.078;13.740;2022-12-31T00:43:44;3.33;;;1.88;;
14603;SDS011;7388;51.078;13.740;2022-12-31T00:46:10;3.00;;;1.10;;
14603;SDS011;7388;51.078;13.740;2022-12-31T00:48:37;2.58;;;1.70;;
14603;SDS011;7388;51.078;13.740;2022-12-31T00:51:04;3.15;;;2.00;;
14603;SDS011;7388;51.078;13.740;2022-12-31T00:53:31;2.97;;;1.67;;
14603;SDS011;7388;51.078;13.740;2022-12-31T00:56:02;2.20;;;1.38;;
14603;SDS011;7388;51.078;13.740;2022-12-31T00:58:34;2.42;;;1.88;;
14603;SDS011;7388;51.078;13.740;2022-12-31T01:03:49;3.28;;;2.28;;
14603;SDS011;7388;51.078;13.740;2022-12-31T01:06:17;2.00;;;1.35;;
14603;SDS011;7388;51.078;13.740;2022-12-31T01:08:43;2.72;;;1.70;;
14603;SDS011;7388;51.078;13.740;2022-12-31T01:11:10;3.70;;;1.97;;
14603;SDS011;7388;51.078;13.740;2022-12-31T01:13:54;2.70;;;1.60;;
14603;SDS011;7388;51.078;13.740;2022-12-31T01:19:09;3.35;;;2.03;;
14603;SDS011;7388;51.078;13.740;2022-12-31T01:21:36;4.15;;;1.80;;
14603;SDS011;7388;51.078;13.740;2022-12-31T01:24:03;4.15;;;1.65;;
14603;SDS011;7388;51.078;13.740;2022-12-31T01:26:29;3.03;;;2.00;;
14603;SDS011;7388;51.078;13.740;2022-12-31T01:28:55;3.30;;;2.07;;
14603;SDS011;7388;51.078;13.740;2022-12-31T01:31:21;2.77;;;1.93;;
14603;SDS011;7388;51.078;13.740;2022-12-31T01:33:48;2.75;;;1.58;;
14603;SDS011;7388;51.078;13.740;2022-12-31T01:36:16;2.20;;;1.80;;
14603;SDS011;7388;51.078;13.740;2022-12-31T01:38:44;3.50;;;2.08;;
14603;SDS011;7388;51.078;13.740;2022-12-31T01:41:11;3.10;;;1.87;;
14603;SDS011;7388;51.078;13.740;2022-12-31T01:46:07;2.42;;;2.17;;
14603;SDS011;7388;51.078;13.740;2022-12-31T01:48:36;2.90;;;2.10;;
14603;SDS011;7388;51.078;13.740;2022-12-31T01:51:03;2.97;;;1.90;;
14603;SDS011;7388;51.078;13.740;2022-12-31T01:53:31;4.63;;;2.63;;
14603;SDS011;7388;51.078;13.740;2022-12-31T01:55:57;5.47;;;2.60;;
14603;SDS011;7388;51.078;13.740;2022-12-31T01:58:26;3.90;;;2.67;;
14603;SDS011;7388;51.078;13.740;2022-12-31T02:00:59;3.05;;;2.03;;
14603;SDS011;7388;51.078;13.740;2022-12-31T02:03:25;3.90;;;2.40;;
14603;SDS011;7388;51.078;13.740;2022-12-31T02:08:36;3.78;;;2.65;;
14603;SDS011;7388;51.078;13.740;2022-12-31T02:14:21;2.90;;;2.10;;
14603;SDS011;7388;51.078;13.740;2022-12-31T02:28:13;2.83;;;2.13;;
14603;SDS011;7388;51.078;13.740;2022-12-31T02:31:11;3.88;;;2.70;;
14603;SDS011;7388;51.078;13.740;2022-12-31T02:33:43;3.38;;;2.35;;
14603;SDS011;7388;51.078;13.740;2022-12-31T02:36:21;3.00;;;2.70;;
14603;SDS011;7388;51.078;13.740;2022-12-31T02:38:51;2.15;;;1.73;;
14603;SDS011;7388;51.078;13.740;2022-12-31T02:41:20;4.72;;;2.40;;
14603;SDS011;7388;51.078;13.740;2022-12-31T02:52:33;3.47;;;1.92;;
14603;SDS011;7388;51.078;13.740;2022-12-31T02:55:08;2.50;;;2.17;;
14603;SDS011;7388;51.078;13.740;2022-12-31T02:58:20;2.42;;;1.75;;
14603;SDS011;7388;51.078;13.740;2022-12-31T03:00:40;2.55;;;1.70;;
14603;SDS011;7388;51.078;13.740;2022-12-31T03:03:31;3.25;;;2.13;;
14603;SDS011;7388;51.078;13.740;2022-12-31T03:05:59;3.20;;;1.58;;
14603;SDS011;7388;51.078;13.740;2022-12-31T03:08:27;3.08;;;1.83;;
14603;SDS011;7388;51.078;13.740;2022-12-31T03:10:52;3.33;;;1.60;;
14603;SDS011;7388;51.078;13.740;2022-12-31T03:15:56;3.15;;;1.90;;
14603;SDS011;7388;51.078;13.740;2022-12-31T03:18:22;2.70;;;1.67;;
14603;SDS011;7388;51.078;13.740;2022-12-31T03:21:10;2.35;;;1.77;;
14603;SDS011;7388;51.078;13.740;2022-12-31T03:23:55;3.17;;;1.83;;
14603;SDS011;7388;51.078;13.740;2022-12-31T03:26:40;2.10;;;1.60;;
14603;SDS011;7388;51.078;13.740;2022-12-31T03:29:05;4.83;;;2.03;;
14603;SDS011;7388;51.078;13.740;2022-12-31T03:31:31;2.50;;;1.60;;
14603;SDS011;7388;51.078;13.740;2022-12-31T03:33:57;3.80;;;2.43;;
14603;SDS011;7388;51.078;13.740;2022-12-31T03:36:22;2.73;;;1.90;;
14603;SDS011;7388;51.078;13.740;2022-12-31T03:38:48;3.37;;;1.60;;
14603;SDS011;7388;51.078;13.740;2022-12-31T03:41:14;2.50;;;1.40;;
14603;SDS011;7388;51.078;13.740;2022-12-31T03:43:39;2.30;;;1.40;;
14603;SDS011;7388;51.078;13.740;2022-12-31T03:46:05;2.03;;;1.30;;
14603;SDS011;7388;51.078;13.740;2022-12-31T03:48:31;2.20;;;1.43;;
14603;SDS011;7388;51.078;13.740;2022-12-31T03:50:57;2.40;;;1.10;;
14603;SDS011;7388;51.078;13.740;2022-12-31T03:53:22;1.40;;;0.60;;
14603;SDS011;7388;51.078;13.740;2022-12-31T03:55:51;2.00;;;1.27;;
14603;SDS011;7388;51.078;13.740;2022-12-31T03:58:18;2.85;;;1.50;;
14603;SDS011;7388;51.078;13.740;2022-12-31T04:00:44;1.87;;;1.10;;
14603;SDS011;7388;51.078;13.740;2022-12-31T04:03:09;2.13;;;1.43;;
14603;SDS011;7388;51.078;13.740;2022-12-31T04:05:35;3.00;;;1.70;;
14603;SDS011;7388;51.078;13.740;2022-12-31T04:08:01;1.97;;;1.33;;
14603;SDS011;7388;51.078;13.740;2022-12-31T04:10:27;4.20;;;1.20;;
14603;SDS011;7388;51.078;13.740;2022-12-31T04:12:52;5.87;;;1.70;;
14603;SDS011;7388;51.078;13.740;2022-12-31T04:15:18;2.90;;;1.50;;
14603;SDS011;7388;51.078;13.740;2022-12-31T04:17:45;2.70;;;1.25;;
14603;SDS011;7388;51.078;13.740;2022-12-31T04:20:11;4.00;;;1.45;;
14603;SDS011;7388;51.078;13.740;2022-12-31T04:22:37;2.23;;;1.20;;
14603;SDS011;7388;51.078;13.740;2022-12-31T04:25:04;1.87;;;1.20;;
14603;SDS011;7388;51.078;13.740;2022-12-31T04:27:35;1.85;;;1.30;;
14603;SDS011;7388;51.078;13.740;2022-12-31T04:30:05;1.85;;;1.15;;
14603;SDS011;7388;51.078;13.740;2022-12-31T04:32:32;1.50;;;1.20;;
14603;SDS011;7388;51.078;13.740;2022-12-31T04:34:57;1.60;;;1.10;;
14603;SDS011;7388;51.078;13.740;2022-12-31T04:37:23;1.90;;;1.17;;
14603;SDS011;7388;51.078;13.740;2022-12-31T04:39:49;2.47;;;1.37;;
14603;SDS011;7388;51.078;13.740;2022-12-31T04:42:14;2.27;;;1.00;;
14603;SDS011;7388;51.078;13.740;2022-12-31T04:44:40;1.80;;;1.00;;
14603;SDS011;7388;51.078;13.740;2022-12-31T04:47:06;1.40;;;0.97;;
14603;SDS011;7388;51.078;13.740;2022-12-31T04:49:31;1.73;;;0.97;;
14603;SDS011;7388;51.078;13.740;2022-12-31T04:51:57;2.80;;;1.20;;
14603;SDS011;7388;51.078;13.740;2022-12-31T04:54:23;6.40;;;1.10;;
14603;SDS011;7388;51.078;13.740;2022-12-31T04:56:48;2.13;;;1.23;;
14603;SDS011;7388;51.078;13.740;2022-12-31T04:59:14;3.90;;;3.07;;
14603;SDS011;7388;51.078;13.740;2022-12-31T05:01:40;2.10;;;1.10;;
14603;SDS011;7388;51.078;13.740;2022-12-31T05:04:06;1.10;;;0.70;;
14603;SDS011;7388;51.078;13.740;2022-12-31T05:06:32;2.70;;;0.80;;
14603;SDS011;7388;51.078;13.740;2022-12-31T05:08:57;2.40;;;1.00;;
14603;SDS011;7388;51.078;13.740;2022-12-31T05:11:23;1.70;;;1.27;;
14603;SDS011;7388;51.078;13.740;2022-12-31T05:13:49;1.70;;;1.10;;
14603;SDS011;7388;51.078;13.740;2022-12-31T05:16:14;1.60;;;1.07;;
14603;SDS011;7388;51.078;13.740;2022-12-31T05:18:40;2.33;;;0.90;;
14603;SDS011;7388;51.078;13.740;2022-12-31T05:21:06;1.53;;;0.80;;
14603;SDS011;7388;51.078;13.740;2022-12-31T05:23:32;2.20;;;1.30;;
14603;SDS011;7388;51.078;13.740;2022-12-31T05:25:58;1.60;;;0.90;;
14603;SDS011;7388;51.078;13.740;2022-12-31T05:28:23;3.10;;;1.00;;
14603;SDS011;7388;51.078;13.740;2022-12-31T05:30:50;1.27;;;0.80;;
14603;SDS011;7388;51.078;13.740;2022-12-31T05:33:16;1.30;;;0.70;;
14603;SDS011;7388;51.078;13.740;2022-12-31T05:35:43;1.58;;;0.82;;
14603;SDS011;7388;51.078;13.740;2022-12-31T05:38:08;2.75;;;1.50;;
14603;SDS011;7388;51.078;13.740;2022-12-31T05:40:34;1.90;;;0.90;;
14603;SDS011;7388;51.078;13.740;2022-12-31T05:43:00;2.00;;;0.80;;
14603;SDS011;7388;51.078;13.740;2022-12-31T05:45:26;2.60;;;0.87;;
14603;SDS011;7388;51.078;13.740;2022-12-31T05:47:52;1.13;;;0.43;;
14603;SDS011;7388;51.078;13.740;2022-12-31T05:50:17;1.00;;;0.40;;
14603;SDS011;7388;51.078;13.740;2022-12-31T05:52:43;1.40;;;0.60;;
14603;SDS011;7388;51.078;13.740;2022-12-31T05:55:10;1.23;;;0.50;;
14603;SDS011;7388;51.078;13.740;2022-12-31T05:57:37;0.90;;;0.20;;
14603;SDS011;7388;51.078;13.740;2022-12-31T06:00:04;1.05;;;0.50;;
14603;SDS011;7388;51.078;13.740;2022-12-31T06:02:31;1.10;;;0.32;;
14603;SDS011;7388;51.078;13.740;2022-12-31T06:04:57;0.90;;;0.30;;
14603;SDS011;7388;51.078;13.740;2022-12-31T06:07:22;0.90;;;0.30;;
14603;SDS011;7388;51.078;13.740;2022-12-31T06:09:48;0.90;;;0.40;;
14603;SDS011;7388;51.078;13.740;2022-12-31T06:12:14;1.00;;;0.20;;
14603;SDS011;7388;51.078;13.740;2022-12-31T06:14:40;1.00;;;0.40;;
14603;SDS011;7388;51.078;13.740;2022-12-31T06:17:05;1.43;;;0.40;;
14603;SDS011;7388;51.078;13.740;2022-12-31T06:19:31;0.90;;;0.30;;
14603;SDS011;7388;51.078;13.740;2022-12-31T06:21:57;0.93;;;0.40;;
14603;SDS011;7388;51.078;13.740;2022-12-31T06:24:22;1.10;;;0.50;;
14603;SDS011;7388;51.078;13.740;2022-12-31T06:26:48;1.67;;;0.50;;
14603;SDS011;7388;51.078;13.740;2022-12-31T06:29:14;0.90;;;0.30;;
14603;SDS011;7388;51.078;13.740;2022-12-31T06:31:40;2.80;;;0.60;;
14603;SDS011;7388;51.078;13.740;2022-12-31T06:34:05;1.10;;;0.40;;
14603;SDS011;7388;51.078;13.740;2022-12-31T06:36:31;1.00;;;0.40;;
14603;SDS011;7388;51.078;13.740;2022-12-31T06:38:57;1.03;;;0.37;;
14603;SDS011;7388;51.078;13.740;2022-12-31T06:41:23;1.10;;;0.40;;
14603;SDS011;7388;51.078;13.740;2022-12-31T06:43:49;2.90;;;0.60;;
14603;SDS011;7388;51.078;13.740;2022-12-31T06:46:15;0.90;;;0.30;;
14603;SDS011;7388;51.078;13.740;2022-12-31T06:48:42;1.13;;;0.40;;
14603;SDS011;7388;51.078;13.740;2022-12-31T06:51:13;2.10;;;0.60;;
14603;SDS011;7388;51.078;13.740;2022-12-31T06:53:40;0.90;;;0.30;;
14603;SDS011;7388;51.078;13.740;2022-12-31T06:56:22;1.00;;;0.30;;
14603;SDS011;7388;51.078;13.740;2022-12-31T06:58:50;1.17;;;0.32;;
14603;SDS011;7388;51.078;13.740;2022-12-31T07:06:37;1.10;;;0.57;;
14603;SDS011;7388;51.078;13.740;2022-12-31T07:15:18;1.20;;;0.63;;
14603;SDS011;7388;51.078;13.740;2022-12-31T07:20:32;1.23;;;0.63;;
14603;SDS011;7388;51.078;13.740;2022-12-31T07:22:58;2.00;;;0.68;;
14603;SDS011;7388;51.078;13.740;2022-12-31T07:25:24;1.00;;;0.40;;
14603;SDS011;7388;51.078;13.740;2022-12-31T07:30:28;1.30;;;0.60;;
14603;SDS011;7388;51.078;13.740;2022-12-31T07:38:47;1.83;;;1.10;;
14603;SDS011;7388;51.078;13.740;2022-12-31T07:46:57;3.20;;;2.03;;
14603;SDS011;7388;51.078;13.740;2022-12-31T07:49:25;2.88;;;1.13;;
14603;SDS011;7388;51.078;13.740;2022-12-31T07:51:53;2.40;;;1.30;;
14603;SDS011;7388;51.078;13.740;2022-12-31T07:54:19;2.80;;;0.95;;
14603;SDS011;7388;51.078;13.740;2022-12-31T07:56:46;1.48;;;0.60;;
14603;SDS011;7388;51.078;13.740;2022-12-31T08:13:00;2.13;;;0.50;;
14603;SDS011;7388;51.078;13.740;2022-12-31T08:15:27;1.63;;;0.75;;
14603;SDS011;7388;51.078;13.740;2022-12-31T08:17:54;1.58;;;0.60;;
14603;SDS011;7388;51.078;13.740;2022-12-31T08:20:20;1.00;;;0.40;;
14603;SDS011;7388;51.078;13.740;2022-12-31T08:30:48;1.48;;;0.82;;
14603;SDS011;7388;51.078;13.740;2022-12-31T08:43:57;1.42;;;0.90;;
14603;SDS011;7388;51.078;13.740;2022-12-31T08:49:29;1.40;;;0.70;;
14603;SDS011;7388;51.078;13.740;2022-12-31T08:51:57;1.42;;;0.73;;
14603;SDS011;7388;51.078;13.740;2022-12-31T08:54:24;1.25;;;0.60;;
14603;SDS011;7388;51.078;13.740;2022-12-31T08:56:55;1.90;;;0.93;;
14603;SDS011;7388;51.078;13.740;2022-12-31T09:02:20;1.40;;;0.93;;
14603;SDS011;7388;51.078;13.740;2022-12-31T09:04:59;2.47;;;0.77;;
14603;SDS011;7388;51.078;13.740;2022-12-31T09:07:35;3.92;;;0.63;;
14603;SDS011;7388;51.078;13.740;2022-12-31T09:15:40;1.73;;;0.90;;
14603;SDS011;7388;51.078;13.740;2022-12-31T09:18:11;1.60;;;0.80;;
14603;SDS011;7388;51.078;13.740;2022-12-31T09:20:37;1.40;;;0.73;;
14603;SDS011;7388;51.078;13.740;2022-12-31T09:23:03;1.60;;;0.90;;
14603;SDS011;7388;51.078;13.740;2022-12-31T09:25:30;1.92;;;0.90;;
14603;SDS011;7388;51.078;13.740;2022-12-31T09:30:25;1.70;;;0.95;;
14603;SDS011;7388;51.078;13.740;2022-12-31T09:33:01;1.15;;;0.57;;
14603;SDS011;7388;51.078;13.740;2022-12-31T09:38:26;2.40;;;1.23;;
14603;SDS011;7388;51.078;13.740;2022-12-31T09:58:28;1.83;;;0.63;;
14603;SDS011;7388;51.078;13.740;2022-12-31T10:07:13;2.28;;;0.70;;
14603;SDS011;7388;51.078;13.740;2022-12-31T10:09:59;2.30;;;1.05;;
14603;SDS011;7388;51.078;13.740;2022-12-31T10:21:32;1.10;;;0.68;;
14603;SDS011;7388;51.078;13.740;2022-12-31T10:24:32;1.67;;;0.97;;
14603;SDS011;7388;51.078;13.740;2022-12-31T10:27:40;1.77;;;0.77;;
14603;SDS011;7388;51.078;13.740;2022-12-31T10:30:17;1.38;;;0.75;;
14603;SDS011;7388;51.078;13.740;2022-12-31T10:35:52;3.03;;;0.70;;
14603;SDS011;7388;51.078;13.740;2022-12-31T10:38:52;1.87;;;0.90;;
14603;SDS011;7388;51.078;13.740;2022-12-31T10:44:21;2.07;;;1.07;;
14603;SDS011;7388;51.078;13.740;2022-12-31T10:53:06;2.60;;;1.30;;
14603;SDS011;7388;51.078;13.740;2022-12-31T10:55:59;1.70;;;0.90;;
14603;SDS011;7388;51.078;13.740;2022-12-31T11:23:30;3.05;;;1.40;;
14603;SDS011;7388;51.078;13.740;2022-12-31T11:26:15;1.92;;;1.25;;
14603;SDS011;7388;51.078;13.740;2022-12-31T11:42:56;3.45;;;1.25;;
14603;SDS011;7388;51.078;13.740;2022-12-31T11:45:38;4.00;;;0.83;;
14603;SDS011;7388;51.078;13.740;2022-12-31T11:56:34;2.40;;;0.97;;
14603;SDS011;7388;51.078;13.740;2022-12-31T11:59:07;2.47;;;1.47;;
14603;SDS011;7388;51.078;13.740;2022-12-31T12:04:10;1.40;;;0.70;;
14603;SDS011;7388;51.078;13.740;2022-12-31T12:06:36;2.87;;;1.00;;
14603;SDS011;7388;51.078;13.740;2022-12-31T12:09:05;1.90;;;1.03;;
14603;SDS011;7388;51.078;13.740;2022-12-31T12:11:39;1.80;;;0.80;;
14603;SDS011;7388;51.078;13.740;2022-12-31T12:14:21;1.23;;;0.90;;
14603;SDS011;7388;51.078;13.740;2022-12-31T12:16:54;1.93;;;1.03;;
14603;SDS011;7388;51.078;13.740;2022-12-31T12:19:21;2.00;;;1.00;;
14603;SDS011;7388;51.078;13.740;2022-12-31T12:21:50;1.30;;;0.50;;
14603;SDS011;7388;51.078;13.740;2022-12-31T12:24:18;1.93;;;0.90;;
14603;SDS011;7388;51.078;13.740;2022-12-31T12:26:46;3.40;;;0.73;;
14603;SDS011;7388;51.078;13.740;2022-12-31T12:29:19;3.00;;;1.37;;
14603;SDS011;7388;51.078;13.740;2022-12-31T12:32:16;1.83;;;0.70;;
14603;SDS011;7388;51.078;13.740;2022-12-31T12:34:49;1.60;;;0.63;;
14603;SDS011;7388;51.078;13.740;2022-12-31T12:37:26;1.87;;;1.50;;
14603;SDS011;7388;51.078;13.740;2022-12-31T12:40:39;1.20;;;0.60;;
14603;SDS011;7388;51.078;13.740;2022-12-31T12:42:48;1.87;;;0.90;;
14603;SDS011;7388;51.078;13.740;2022-12-31T12:45:17;1.20;;;0.80;;
14603;SDS011;7388;51.078;13.740;2022-12-31T12:47:49;1.60;;;0.77;;
14603;SDS011;7388;51.078;13.740;2022-12-31T12:50:21;2.70;;;0.83;;
14603;SDS011;7388;51.078;13.740;2022-12-31T12:58:24;2.60;;;1.03;;
14603;SDS011;7388;51.078;13.740;2022-12-31T13:11:58;2.00;;;1.17;;
14603;SDS011;7388;51.078;13.740;2022-12-31T13:16:49;4.10;;;2.67;;
14603;SDS011;7388;51.078;13.740;2022-12-31T13:24:44;2.90;;;2.30;;
14603;SDS011;7388;51.078;13.740;2022-12-31T13:27:36;3.10;;;1.00;;
14603;SDS011;7388;51.078;13.740;2022-12-31T13:30:17;3.93;;;2.60;;
14603;SDS011;7388;51.078;13.740;2022-12-31T13:32:45;6.20;;;1.60;;
14603;SDS011;7388;51.078;13.740;2022-12-31T13:35:20;1.77;;;1.00;;
14603;SDS011;7388;51.078;13.740;2022-12-31T13:37:50;3.70;;;1.30;;
14603;SDS011;7388;51.078;13.740;2022-12-31T13:40:26;1.63;;;0.93;;
14603;SDS011;7388;51.078;13.740;2022-12-31T13:43:06;1.50;;;1.00;;
14603;SDS011;7388;51.078;13.740;2022-12-31T13:45:47;2.47;;;1.30;;
14603;SDS011;7388;51.078;13.740;2022-12-31T13:48:28;2.33;;;1.00;;
14603;SDS011;7388;51.078;13.740;2022-12-31T13:56:29;3.72;;;2.42;;
14603;SDS011;7388;51.078;13.740;2022-12-31T14:04:52;1.92;;;1.05;;
14603;SDS011;7388;51.078;13.740;2022-12-31T14:07:43;1.80;;;0.73;;
14603;SDS011;7388;51.078;13.740;2022-12-31T14:10:19;2.97;;;1.70;;
14603;SDS011;7388;51.078;13.740;2022-12-31T14:12:55;2.15;;;1.90;;
14603;SDS011;7388;51.078;13.740;2022-12-31T14:15:37;4.50;;;2.50;;
14603;SDS011;7388;51.078;13.740;2022-12-31T14:20:50;2.93;;;1.67;;
14603;SDS011;7388;51.078;13.740;2022-12-31T14:24:02;1.73;;;1.27;;
14603;SDS011;7388;51.078;13.740;2022-12-31T14:26:42;2.87;;;1.70;;
14603;SDS011;7388;51.078;13.740;2022-12-31T14:39:47;3.28;;;2.10;;
14603;SDS011;7388;51.078;13.740;2022-12-31T14:42:45;2.22;;;1.05;;
14603;SDS011;7388;51.078;13.740;2022-12-31T14:48:22;2.27;;;1.00;;
14603;SDS011;7388;51.078;13.740;2022-12-31T14:50:58;4.77;;;4.20;;
14603;SDS011;7388;51.078;13.740;2022-12-31T14:53:27;4.10;;;2.13;;
14603;SDS011;7388;51.078;13.740;2022-12-31T14:56:00;3.45;;;1.92;;
14603;SDS011;7388;51.078;13.740;2022-12-31T14:58:32;4.33;;;1.63;;
14603;SDS011;7388;51.078;13.740;2022-12-31T15:01:20;2.17;;;1.77;;
14603;SDS011;7388;51.078;13.740;2022-12-31T15:03:46;1.50;;;1.10;;
14603;SDS011;7388;51.078;13.740;2022-12-31T15:19:25;3.20;;;1.35;;
14603;SDS011;7388;51.078;13.740;2022-12-31T15:24:43;2.42;;;1.65;;
14603;SDS011;7388;51.078;13.740;2022-12-31T15:27:43;2.13;;;1.60;;
14603;SDS011;7388;51.078;13.740;2022-12-31T15:30:06;2.35;;;1.27;;
14603;SDS011;7388;51.078;13.740;2022-12-31T15:32:52;2.15;;;1.25;;
14603;SDS011;7388;51.078;13.740;2022-12-31T15:37:59;2.53;;;1.70;;
14603;SDS011;7388;51.078;13.740;2022-12-31T15:40:27;1.83;;;1.42;;
14603;SDS011;7388;51.078;13.740;2022-12-31T15:42:58;1.80;;;1.30;;
14603;SDS011;7388;51.078;13.740;2022-12-31T15:45:44;11.63;;;8.05;;
14603;SDS011;7388;51.078;13.740;2022-12-31T15:48:16;3.15;;;2.03;;
14603;SDS011;7388;51.078;13.740;2022-12-31T15:50:46;9.10;;;7.47;;
14603;SDS011;7388;51.078;13.740;2022-12-31T15:53:34;7.50;;;6.25;;
14603;SDS011;7388;51.078;13.740;2022-12-31T15:56:38;7.90;;;5.93;;
14603;SDS011;7388;51.078;13.740;2022-12-31T15:59:05;2.60;;;2.00;;
14603;SDS011;7388;51.078;13.740;2022-12-31T16:01:38;2.42;;;1.83;;
14603;SDS011;7388;51.078;13.740;2022-12-31T16:04:17;7.57;;;4.25;;
14603;SDS011;7388;51.078;13.740;2022-12-31T16:06:45;4.10;;;2.88;;
14603;SDS011;7388;51.078;13.740;2022-12-31T16:09:19;4.13;;;2.40;;
14603;SDS011;7388;51.078;13.740;2022-12-31T16:11:48;3.93;;;3.00;;
14603;SDS011;7388;51.078;13.740;2022-12-31T16:14:22;13.10;;;11.80;;
14603;SDS011;7388;51.078;13.740;2022-12-31T16:19:55;9.03;;;8.20;;
14603;SDS011;7388;51.078;13.740;2022-12-31T16:22:26;6.63;;;4.20;;
14603;SDS011;7388;51.078;13.740;2022-12-31T16:24:59;5.53;;;5.00;;
14603;SDS011;7388;51.078;13.740;2022-12-31T16:27:26;6.73;;;6.00;;
14603;SDS011;7388;51.078;13.740;2022-12-31T16:30:07;8.13;;;5.80;;
14603;SDS011;7388;51.078;13.740;2022-12-31T16:32:45;12.00;;;9.65;;
14603;SDS011;7388;51.078;13.740;2022-12-31T16:47:54;7.88;;;6.18;;
14603;SDS011;7388;51.078;13.740;2022-12-31T16:50:21;10.00;;;7.57;;
14603;SDS011;7388;51.078;13.740;2022-12-31T16:52:49;13.93;;;8.63;;
14603;SDS011;7388;51.078;13.740;2022-12-31T16:55:20;6.10;;;5.50;;
14603;SDS011;7388;51.078;13.740;2022-12-31T16:57:50;17.10;;;15.35;;
14603;SDS011;7388;51.078;13.740;2022-12-31T17:00:20;38.03;;;34.33;;
14603;SDS011;7388;51.078;13.740;2022-12-31T17:02:58;57.27;;;45.63;;
14603;SDS011;7388;51.078;13.740;2022-12-31T17:05:33;17.92;;;16.05;;
14603;SDS011;7388;51.078;13.740;2022-12-31T17:08:27;14.05;;;12.43;;
14603;SDS011;7388;51.078;13.740;2022-12-31T17:11:03;4.70;;;4.00;;
14603;SDS011;7388;51.078;13.740;2022-12-31T17:13:29;4.35;;;3.90;;
14603;SDS011;7388;51.078;13.740;2022-12-31T17:15:58;7.30;;;5.18;;
14603;SDS011;7388;51.078;13.740;2022-12-31T17:18:35;6.82;;;6.13;;
14603;SDS011;7388;51.078;13.740;2022-12-31T17:21:04;8.10;;;6.50;;
14603;SDS011;7388;51.078;13.740;2022-12-31T17:23:33;13.73;;;9.97;;
14603;SDS011;7388;51.078;13.740;2022-12-31T17:26:05;11.98;;;10.82;;
14603;SDS011;7388;51.078;13.740;2022-12-31T17:28:54;8.63;;;6.75;;
14603;SDS011;7388;51.078;13.740;2022-12-31T17:31:34;8.80;;;7.40;;
14603;SDS011;7388;51.078;13.740;2022-12-31T17:36:37;4.57;;;4.17;;
14603;SDS011;7388;51.078;13.740;2022-12-31T17:39:16;4.77;;;4.07;;
14603;SDS011;7388;51.078;13.740;2022-12-31T17:41:48;3.77;;;3.23;;
14603;SDS011;7388;51.078;13.740;2022-12-31T17:44:20;11.05;;;7.30;;
14603;SDS011;7388;51.078;13.740;2022-12-31T17:46:53;10.20;;;8.27;;
14603;SDS011;7388;51.078;13.740;2022-12-31T17:49:21;12.85;;;11.55;;
14603;SDS011;7388;51.078;13.740;2022-12-31T17:51:52;7.37;;;3.90;;
14603;SDS011;7388;51.078;13.740;2022-12-31T17:54:18;10.27;;;8.97;;
14603;SDS011;7388;51.078;13.740;2022-12-31T17:56:44;18.57;;;16.53;;
14603;SDS011;7388;51.078;13.740;2022-12-31T17:59:16;8.73;;;7.20;;
14603;SDS011;7388;51.078;13.740;2022-12-31T18:01:46;18.73;;;15.83;;
14603;SDS011;7388;51.078;13.740;2022-12-31T18:04:13;9.77;;;8.57;;
14603;SDS011;7388;51.078;13.740;2022-12-31T18:06:40;14.60;;;12.27;;
14603;SDS011;7388;51.078;13.740;2022-12-31T18:09:06;12.50;;;10.10;;
14603;SDS011;7388;51.078;13.740;2022-12-31T18:11:32;9.50;;;8.53;;
14603;SDS011;7388;51.078;13.740;2022-12-31T18:13:59;7.43;;;5.43;;
14603;SDS011;7388;51.078;13.740;2022-12-31T18:16:25;9.67;;;6.70;;
14603;SDS011;7388;51.078;13.740;2022-12-31T18:18:51;7.20;;;5.97;;
14603;SDS011;7388;51.078;13.740;2022-12-31T18:21:27;8.03;;;6.60;;
14603;SDS011;7388;51.078;13.740;2022-12-31T18:23:56;8.03;;;6.90;;
14603;SDS011;7388;51.078;13.740;2022-12-31T18:26:24;8.33;;;7.00;;
14603;SDS011;7388;51.078;13.740;2022-12-31T18:28:51;8.00;;;6.57;;
14603;SDS011;7388;51.078;13.740;2022-12-31T18:31:24;10.43;;;9.40;;
14603;SDS011;7388;51.078;13.740;2022-12-31T18:33:55;9.77;;;8.77;;
14603;SDS011;7388;51.078;13.740;2022-12-31T18:36:22;14.20;;;10.93;;
14603;SDS011;7388;51.078;13.740;2022-12-31T18:38:49;7.32;;;6.43;;
14603;SDS011;7388;51.078;13.740;2022-12-31T18:41:19;7.70;;;5.50;;
14603;SDS011;7388;51.078;13.740;2022-12-31T18:43:47;16.73;;;5.85;;
14603;SDS011;7388;51.078;13.740;2022-12-31T18:46:17;8.30;;;7.50;;
14603;SDS011;7388;51.078;13.740;2022-12-31T18:48:44;8.30;;;7.03;;
14603;SDS011;7388;51.078;13.740;2022-12-31T18:51:13;10.90;;;7.93;;
14603;SDS011;7388;51.078;13.740;2022-12-31T18:53:41;11.30;;;8.93;;
14603;SDS011;7388;51.078;13.740;2022-12-31T18:56:14;11.13;;;9.93;;
14603;SDS011;7388;51.078;13.740;2022-12-31T18:58:42;12.60;;;9.70;;
14603;SDS011;7388;51.078;13.740;2022-12-31T19:03:57;6.63;;;4.90;;
14603;SDS011;7388;51.078;13.740;2022-12-31T19:06:24;7.40;;;6.30;;
14603;SDS011;7388;51.078;13.740;2022-12-31T19:08:50;7.00;;;5.95;;
14603;SDS011;7388;51.078;13.740;2022-12-31T19:11:16;6.03;;;4.40;;
14603;SDS011;7388;51.078;13.740;2022-12-31T19:13:42;5.53;;;4.63;;
14603;SDS011;7388;51.078;13.740;2022-12-31T19:16:08;7.20;;;5.37;;
14603;SDS011;7388;51.078;13.740;2022-12-31T19:18:34;10.35;;;6.85;;
14603;SDS011;7388;51.078;13.740;2022-12-31T19:21:00;7.67;;;5.80;;
14603;SDS011;7388;51.078;13.740;2022-12-31T19:23:26;6.65;;;4.55;;
14603;SDS011;7388;51.078;13.740;2022-12-31T19:25:52;11.47;;;5.90;;
14603;SDS011;7388;51.078;13.740;2022-12-31T19:28:19;8.50;;;6.67;;
14603;SDS011;7388;51.078;13.740;2022-12-31T19:30:50;7.95;;;6.63;;
14603;SDS011;7388;51.078;13.740;2022-12-31T19:33:16;8.85;;;5.80;;
14603;SDS011;7388;51.078;13.740;2022-12-31T19:35:42;7.30;;;6.47;;
14603;SDS011;7388;51.078;13.740;2022-12-31T19:38:16;9.35;;;8.10;;
14603;SDS011;7388;51.078;13.740;2022-12-31T19:40:43;11.85;;;9.50;;
14603;SDS011;7388;51.078;13.740;2022-12-31T19:43:13;9.50;;;8.50;;
14603;SDS011;7388;51.078;13.740;2022-12-31T19:45:40;16.40;;;11.10;;
14603;SDS011;7388;51.078;13.740;2022-12-31T19:48:09;13.00;;;10.55;;
14603;SDS011;7388;51.078;13.740;2022-12-31T19:50:40;14.57;;;13.02;;
14603;SDS011;7388;51.078;13.740;2022-12-31T19:53:08;19.98;;;15.98;;
14603;SDS011;7388;51.078;13.740;2022-12-31T19:55:42;13.85;;;11.18;;
14603;SDS011;7388;51.078;13.740;2022-12-31T19:58:09;18.20;;;13.60;;
14603;SDS011;7388;51.078;13.740;2022-12-31T20:00:41;16.00;;;12.32;;
14603;SDS011;7388;51.078;13.740;2022-12-31T20:03:08;16.43;;;14.43;;
14603;SDS011;7388;51.078;13.740;2022-12-31T20:05:35;17.85;;;15.68;;
14603;SDS011;7388;51.078;13.740;2022-12-31T20:08:01;21.30;;;16.60;;
14603;SDS011;7388;51.078;13.740;2022-12-31T20:10:27;18.83;;;16.70;;